CheckWX is a tool to help pilots better visualize weather data.  It is not intended as a substitute for an official pre-flight weather briefing.

03:00:42 UTC

LFOE METAR
Évreux-Fauville (BA 105) Air Base
Évreux/Fauville, France
Current

31 mins ago

LFOE 120230Z AUTO 36004KT CAVOK 10/08 Q1027
Observed
Jul-12 @ 02:30 UTC
Wind
  • 360° at 4 KTS
Visibility
10,000+ meters
Flight Rules
VFR
Cloud Levels
  • Clear skies
Temperature
10°C / 50°F
Dewpoint
C / 46°F
Humidity
88%
Altimeter
30.32" Hg
Pressure
1026.92 hPa
Previous

1 hour ago

LFOE 120200Z AUTO 36004KT CAVOK 10/08 Q1027
Observed
Jul-12 @ 02:00 UTC
Wind
  • 360° at 4 KTS
Visibility
10,000+ meters
Flight Rules
VFR
Cloud Levels
  • Clear skies
Temperature
10°C / 50°F
Dewpoint
C / 46°F
Humidity
88%
Altimeter
30.32" Hg
Pressure
1026.92 hPa
Previous

2 hours ago

LFOE 120130Z AUTO 36005KT 340V040 CAVOK 10/08 Q1027
Observed
Jul-12 @ 01:30 UTC
Wind
  • 360° at 5 KTS
Visibility
10,000+ meters
Flight Rules
VFR
Cloud Levels
  • Clear skies
Temperature
10°C / 50°F
Dewpoint
C / 46°F
Humidity
88%
Altimeter
30.32" Hg
Pressure
1026.92 hPa